createdAt,value
2022-11-27T00:01:17.840Z,14.50
2022-11-27T00:03:44.159Z,9.38
2022-11-27T00:06:15.599Z,13.98
2022-11-27T00:08:42.417Z,13.80
2022-11-27T00:11:10.355Z,10.85
2022-11-27T00:13:36.636Z,13.80
2022-11-27T00:16:03.903Z,16.25
2022-11-27T00:18:30.273Z,14.70
2022-11-27T00:20:56.530Z,12.05
2022-11-27T00:23:22.751Z,14.52
2022-11-27T00:25:49.833Z,13.20
2022-11-27T00:28:16.053Z,13.68
2022-11-27T00:30:42.346Z,14.10
2022-11-27T00:33:08.538Z,12.30
2022-11-27T00:35:34.770Z,10.63
2022-11-27T00:38:01.036Z,14.60
2022-11-27T00:40:27.300Z,11.50
2022-11-27T00:42:53.498Z,12.00
2022-11-27T00:45:19.741Z,14.15
2022-11-27T00:47:45.924Z,13.82
2022-11-27T00:50:12.194Z,13.07
2022-11-27T00:52:38.431Z,10.30
2022-11-27T00:55:05.091Z,11.48
2022-11-27T00:57:31.312Z,12.35
2022-11-27T00:59:57.527Z,12.82
2022-11-27T01:02:24.117Z,11.35
2022-11-27T01:04:50.353Z,11.23
2022-11-27T01:07:16.826Z,12.07
2022-11-27T01:09:43.112Z,11.77
2022-11-27T01:12:09.328Z,9.50
2022-11-27T01:14:35.543Z,8.50
2022-11-27T01:17:01.756Z,11.15
2022-11-27T01:19:27.937Z,10.30
2022-11-27T01:21:54.146Z,10.95
2022-11-27T01:24:20.366Z,11.35
2022-11-27T01:26:46.643Z,10.80
2022-11-27T01:29:12.851Z,16.67
2022-11-27T01:31:39.316Z,13.43
2022-11-27T01:34:07.010Z,9.98
2022-11-27T01:36:34.223Z,8.75
2022-11-27T01:39:00.883Z,11.25
2022-11-27T01:41:31.730Z,10.50
2022-11-27T01:43:59.798Z,10.20
2022-11-27T01:46:29.259Z,8.35
2022-11-27T01:48:59.693Z,12.40
2022-11-27T01:51:25.958Z,12.90
2022-11-27T01:53:53.494Z,13.73
2022-11-27T01:56:20.587Z,12.43
2022-11-27T01:58:47.000Z,14.73
2022-11-27T02:01:13.869Z,11.20
2022-11-27T02:03:40.070Z,12.98
2022-11-27T02:06:06.407Z,13.60
2022-11-27T02:08:32.745Z,13.15
2022-11-27T02:11:21.978Z,9.85
2022-11-27T02:14:14.418Z,12.57
2022-11-27T02:16:49.215Z,12.55
2022-11-27T02:19:44.712Z,13.02
2022-11-27T02:22:10.885Z,8.90
2022-11-27T02:24:56.184Z,10.07
2022-11-27T02:27:44.503Z,15.13
2022-11-27T02:30:10.898Z,14.38
2022-11-27T02:32:57.105Z,10.57
2022-11-27T02:35:29.855Z,9.93
2022-11-27T02:38:05.726Z,15.88
2022-11-27T02:40:37.856Z,16.42
2022-11-27T02:43:08.819Z,12.32
2022-11-27T02:45:37.582Z,17.58
2022-11-27T02:48:04.565Z,15.40
2022-11-27T02:50:31.936Z,15.98
2022-11-27T02:53:01.545Z,15.18
2022-11-27T02:55:30.634Z,15.32
2022-11-27T02:57:57.713Z,16.65
2022-11-27T03:00:24.181Z,14.63
2022-11-27T03:02:52.984Z,17.30
2022-11-27T03:05:20.718Z,20.80
2022-11-27T03:07:51.214Z,16.33
2022-11-27T03:10:19.669Z,15.93
2022-11-27T03:12:47.051Z,20.73
2022-11-27T03:15:13.410Z,18.95
2022-11-27T03:17:45.342Z,18.88
2022-11-27T03:20:16.412Z,19.73
2022-11-27T03:22:42.987Z,21.02
2022-11-27T03:25:09.276Z,24.88
2022-11-27T03:27:38.665Z,21.83
2022-11-27T03:30:06.202Z,23.38
2022-11-27T03:32:32.968Z,21.58
2022-11-27T03:34:59.395Z,22.17
2022-11-27T03:37:26.490Z,20.58
2022-11-27T03:39:52.910Z,26.33
2022-11-27T03:42:24.895Z,26.15
2022-11-27T03:45:06.430Z,22.77
2022-11-27T03:50:01.819Z,24.85
2022-11-27T03:52:46.687Z,23.88
2022-11-27T03:55:18.717Z,26.00
2022-11-27T03:58:01.726Z,20.98
2022-11-27T04:00:30.715Z,27.13
2022-11-27T04:02:56.967Z,31.60
2022-11-27T04:05:23.215Z,24.63
2022-11-27T04:07:49.534Z,22.92
2022-11-27T04:10:15.836Z,22.77
2022-11-27T04:12:42.064Z,24.88
2022-11-27T04:15:08.702Z,23.70
2022-11-27T04:17:35.123Z,24.23
2022-11-27T04:20:01.496Z,21.70
2022-11-27T04:22:27.685Z,22.42
2022-11-27T04:24:53.920Z,24.98
2022-11-27T04:27:20.097Z,23.88
2022-11-27T04:29:46.281Z,25.48
2022-11-27T04:32:12.470Z,22.52
2022-11-27T04:34:39.013Z,20.50
2022-11-27T04:37:05.392Z,19.73
2022-11-27T04:39:31.663Z,21.10
2022-11-27T04:41:57.840Z,19.30
2022-11-27T04:44:24.102Z,22.15
2022-11-27T04:46:50.363Z,24.92
2022-11-27T04:49:16.610Z,23.17
2022-11-27T04:51:42.881Z,21.73
2022-11-27T04:54:09.123Z,21.38
2022-11-27T04:56:35.317Z,22.35
2022-11-27T04:59:01.509Z,19.73
2022-11-27T05:01:27.742Z,20.83
2022-11-27T05:03:54.052Z,20.38
2022-11-27T05:06:22.562Z,19.35
2022-11-27T05:08:48.797Z,21.08
2022-11-27T05:11:16.143Z,18.98
2022-11-27T05:13:42.613Z,18.42
2022-11-27T05:16:08.860Z,23.25
2022-11-27T05:18:35.172Z,17.05
2022-11-27T05:21:02.758Z,18.17
2022-11-27T05:23:29.540Z,19.90
2022-11-27T05:25:55.718Z,19.83
2022-11-27T05:28:26.426Z,20.52
2022-11-27T05:30:53.137Z,20.33
2022-11-27T05:33:19.477Z,18.40
2022-11-27T05:35:45.880Z,23.20
2022-11-27T05:38:12.687Z,19.83
2022-11-27T05:40:39.158Z,17.50
2022-11-27T05:43:05.651Z,17.65
2022-11-27T05:45:31.868Z,14.68
2022-11-27T05:47:58.077Z,16.48
2022-11-27T05:50:24.419Z,18.98
2022-11-27T05:52:50.627Z,15.85
2022-11-27T05:55:16.820Z,15.50
2022-11-27T05:57:43.028Z,13.63
2022-11-27T06:00:10.168Z,13.43
2022-11-27T06:02:36.450Z,17.42
2022-11-27T06:05:02.724Z,14.20
2022-11-27T06:07:30.631Z,17.27
2022-11-27T06:09:56.890Z,13.05
2022-11-27T06:12:23.141Z,14.55
2022-11-27T06:14:49.378Z,15.48
2022-11-27T06:17:16.452Z,13.43
2022-11-27T06:19:43.114Z,14.65
2022-11-27T06:22:09.304Z,13.82
2022-11-27T06:24:35.501Z,14.23
2022-11-27T06:27:01.691Z,15.57
2022-11-27T06:29:27.881Z,16.00
2022-11-27T06:31:54.118Z,15.80
2022-11-27T06:34:20.355Z,15.95
2022-11-27T06:36:46.614Z,14.48
2022-11-27T06:39:12.885Z,12.20
2022-11-27T06:41:39.061Z,13.07
2022-11-27T06:44:05.255Z,16.08
2022-11-27T06:46:31.543Z,11.57
2022-11-27T06:48:58.145Z,14.75
2022-11-27T06:51:25.261Z,12.38
2022-11-27T06:53:52.023Z,13.77
2022-11-27T06:56:20.711Z,12.48
2022-11-27T06:58:50.176Z,12.88
2022-11-27T07:01:16.895Z,13.13
2022-11-27T07:03:43.886Z,13.68
2022-11-27T07:06:11.499Z,11.75
2022-11-27T07:08:37.786Z,11.02
2022-11-27T07:11:05.256Z,9.82
2022-11-27T07:13:31.717Z,15.93
2022-11-27T07:16:01.939Z,11.20
2022-11-27T07:18:28.648Z,12.90
2022-11-27T07:20:56.656Z,12.80
2022-11-27T07:23:23.124Z,11.68
2022-11-27T07:25:49.485Z,8.95
2022-11-27T07:28:18.802Z,11.40
2022-11-27T07:30:45.511Z,12.27
2022-11-27T07:33:11.717Z,12.63
2022-11-27T07:35:37.913Z,14.05
2022-11-27T07:38:04.082Z,11.15
2022-11-27T07:40:30.297Z,9.75
2022-11-27T07:42:58.302Z,12.85
2022-11-27T07:45:24.552Z,12.85
2022-11-27T07:47:50.796Z,12.48
2022-11-27T07:50:16.996Z,15.35
2022-11-27T07:52:43.226Z,10.35
2022-11-27T07:55:09.504Z,8.35
2022-11-27T07:57:35.677Z,11.25
2022-11-27T08:00:01.887Z,9.38
2022-11-27T08:02:28.158Z,10.45
2022-11-27T08:04:54.468Z,9.57
2022-11-27T08:07:20.761Z,9.45
2022-11-27T08:09:47.056Z,9.15
2022-11-27T08:12:13.235Z,13.77
2022-11-27T08:14:39.919Z,11.40
2022-11-27T08:17:06.223Z,11.77
2022-11-27T08:19:32.446Z,9.93
2022-11-27T08:21:58.714Z,11.00
2022-11-27T08:24:24.943Z,12.18
2022-11-27T08:26:52.115Z,12.38
2022-11-27T08:29:18.353Z,10.68
2022-11-27T08:31:44.659Z,13.80
2022-11-27T08:34:10.882Z,12.95
2022-11-27T08:36:37.142Z,11.07
2022-11-27T08:39:03.458Z,10.70
2022-11-27T08:41:29.675Z,11.90
2022-11-27T08:43:55.881Z,13.35
2022-11-27T08:46:22.450Z,10.65
2022-11-27T08:48:48.681Z,12.48
2022-11-27T08:51:15.443Z,13.00
2022-11-27T08:53:41.690Z,8.57
2022-11-27T08:56:08.825Z,9.52
2022-11-27T08:58:35.324Z,10.70
2022-11-27T09:01:06.866Z,12.60
2022-11-27T09:03:33.359Z,8.57
2022-11-27T09:05:59.658Z,14.02
2022-11-27T09:08:25.928Z,13.25
2022-11-27T09:10:52.218Z,11.00
2022-11-27T09:13:18.402Z,12.23
2022-11-27T09:15:44.590Z,9.15
2022-11-27T09:18:10.781Z,9.70
2022-11-27T09:20:36.999Z,12.18
2022-11-27T09:23:03.213Z,10.55
2022-11-27T09:25:29.406Z,11.38
2022-11-27T09:27:55.596Z,11.13
2022-11-27T09:30:21.831Z,9.40
2022-11-27T09:32:48.005Z,12.00
2022-11-27T09:35:14.733Z,13.57
2022-11-27T09:37:40.943Z,12.38
2022-11-27T09:40:07.640Z,12.55
2022-11-27T09:42:37.397Z,12.05
2022-11-27T09:45:05.559Z,13.60
2022-11-27T09:47:41.890Z,11.40
2022-11-27T09:50:15.682Z,11.57
2022-11-27T09:52:55.975Z,11.82
2022-11-27T09:55:41.898Z,9.90
2022-11-27T09:58:23.364Z,10.15
2022-11-27T10:00:49.642Z,11.88
2022-11-27T10:03:18.607Z,12.55
2022-11-27T10:05:50.599Z,10.65
2022-11-27T10:08:19.918Z,11.77
2022-11-27T10:10:48.928Z,10.98
2022-11-27T10:13:30.180Z,12.10
2022-11-27T10:15:59.059Z,11.23
2022-11-27T10:18:39.674Z,11.75
2022-11-27T10:21:18.453Z,11.65
2022-11-27T10:24:10.113Z,12.73
2022-11-27T10:26:41.065Z,13.15
2022-11-27T10:29:19.696Z,10.88
2022-11-27T10:31:51.092Z,11.40
2022-11-27T10:34:26.696Z,10.13
2022-11-27T10:36:53.538Z,10.98
2022-11-27T10:39:28.627Z,11.30
2022-11-27T10:42:08.709Z,15.13
2022-11-27T10:44:38.534Z,13.45
2022-11-27T10:47:06.810Z,9.93
2022-11-27T10:49:34.086Z,12.07
2022-11-27T10:52:00.336Z,12.82
2022-11-27T10:54:29.014Z,10.73
2022-11-27T10:57:12.274Z,10.63
2022-11-27T10:59:53.698Z,11.60
2022-11-27T11:02:27.821Z,9.90
2022-11-27T11:05:16.110Z,10.55
2022-11-27T11:07:40.900Z,14.35
2022-11-27T11:10:22.343Z,12.75
2022-11-27T11:12:48.537Z,9.32
2022-11-27T11:15:15.117Z,10.55
2022-11-27T11:17:41.387Z,10.10
2022-11-27T11:20:20.423Z,7.32
2022-11-27T11:22:47.178Z,11.70
2022-11-27T11:25:17.268Z,10.52
2022-11-27T11:27:44.007Z,11.15
2022-11-27T11:30:23.907Z,10.52
2022-11-27T11:32:50.580Z,11.55
2022-11-27T11:35:30.626Z,14.43
2022-11-27T11:37:57.359Z,9.60
2022-11-27T11:40:25.738Z,13.23
2022-11-27T11:42:55.079Z,11.15
2022-11-27T11:45:22.436Z,10.48
2022-11-27T11:47:52.451Z,10.48
2022-11-27T11:50:26.913Z,11.30
2022-11-27T11:52:58.083Z,9.27
2022-11-27T11:55:30.837Z,9.43
2022-11-27T11:57:57.019Z,11.30
2022-11-27T12:00:30.144Z,7.00
2022-11-27T12:03:01.222Z,7.88
2022-11-27T12:05:34.750Z,9.18
2022-11-27T12:08:25.206Z,10.40
2022-11-27T12:11:06.767Z,8.27
2022-11-27T12:13:42.013Z,10.35
2022-11-27T12:16:20.412Z,9.23
2022-11-27T12:18:52.723Z,7.88
2022-11-27T12:21:25.316Z,7.15
2022-11-27T12:23:51.666Z,7.90
2022-11-27T12:26:27.064Z,8.35
2022-11-27T12:28:58.816Z,8.25
2022-11-27T12:31:40.480Z,5.07
2022-11-27T12:34:11.356Z,7.85
2022-11-27T12:36:40.625Z,7.32
2022-11-27T12:39:23.522Z,10.13
2022-11-27T12:41:49.698Z,11.45
2022-11-27T12:44:28.792Z,11.85
2022-11-27T12:47:07.147Z,7.07
2022-11-27T12:49:39.409Z,7.60
2022-11-27T12:52:17.411Z,8.35
2022-11-27T12:54:50.867Z,7.00
2022-11-27T12:57:20.092Z,8.02
2022-11-27T12:59:50.891Z,8.30
2022-11-27T13:02:38.212Z,7.88
2022-11-27T13:05:10.662Z,6.70
2022-11-27T13:07:46.545Z,6.25
2022-11-27T13:10:18.814Z,12.18
2022-11-27T13:12:51.286Z,6.43
2022-11-27T13:15:20.523Z,7.28
2022-11-27T13:17:49.638Z,7.00
2022-11-27T13:20:17.700Z,6.85
2022-11-27T13:22:44.380Z,7.15
2022-11-27T13:25:14.321Z,6.55
2022-11-27T13:27:42.907Z,7.68
2022-11-27T13:30:09.501Z,7.65
2022-11-27T13:32:47.917Z,7.93
2022-11-27T13:35:22.829Z,5.80
2022-11-27T13:37:54.311Z,7.53
2022-11-27T13:42:49.920Z,7.38
2022-11-27T13:45:21.567Z,8.27
2022-11-27T13:47:48.726Z,7.85
2022-11-27T13:50:17.937Z,8.50
2022-11-27T13:52:51.842Z,7.97
2022-11-27T13:55:26.068Z,7.88
2022-11-27T13:57:53.457Z,7.55
2022-11-27T14:00:30.196Z,7.05
2022-11-27T14:02:56.714Z,6.40
2022-11-27T14:05:35.212Z,8.48
2022-11-27T14:08:01.630Z,7.65
2022-11-27T14:10:29.732Z,6.57
2022-11-27T14:13:01.686Z,7.45
2022-11-27T14:15:29.609Z,7.70
2022-11-27T14:18:08.593Z,7.95
2022-11-27T14:20:35.938Z,7.18
2022-11-27T14:23:17.762Z,10.27
2022-11-27T14:25:43.986Z,6.53
2022-11-27T14:28:14.185Z,8.75
2022-11-27T14:30:40.563Z,8.68
2022-11-27T14:33:16.625Z,8.50
2022-11-27T14:35:42.802Z,6.90
2022-11-27T14:38:14.966Z,8.63
2022-11-27T14:40:42.641Z,8.23
2022-11-27T14:43:19.706Z,9.13
2022-11-27T14:45:50.416Z,7.80
2022-11-27T14:48:20.819Z,8.93
2022-11-27T14:50:48.093Z,7.63
2022-11-27T14:53:14.456Z,7.03
2022-11-27T14:55:40.882Z,8.32
2022-11-27T14:58:17.027Z,7.45
2022-11-27T15:00:50.931Z,7.55
2022-11-27T15:03:17.714Z,8.88
2022-11-27T15:05:51.504Z,8.25
2022-11-27T15:08:18.268Z,12.88
2022-11-27T15:10:44.789Z,9.68
2022-11-27T15:13:24.736Z,7.53
2022-11-27T15:15:56.393Z,9.27
2022-11-27T15:18:23.570Z,9.43
2022-11-27T15:20:50.150Z,12.18
2022-11-27T15:23:19.161Z,10.05
2022-11-27T15:26:00.526Z,9.98
2022-11-27T15:28:33.800Z,7.88
2022-11-27T15:31:00.495Z,9.15
2022-11-27T15:33:27.984Z,10.95
2022-11-27T15:35:55.092Z,13.18
2022-11-27T15:38:21.387Z,9.73
2022-11-27T15:40:56.910Z,8.75
2022-11-27T15:43:23.175Z,9.00
2022-11-27T15:45:50.963Z,9.40
2022-11-27T15:48:18.857Z,11.50
2022-11-27T15:50:50.081Z,7.88
2022-11-27T15:53:18.154Z,11.13
2022-11-27T15:55:44.596Z,9.38
2022-11-27T15:58:10.796Z,11.32
2022-11-27T16:00:37.064Z,9.98
2022-11-27T16:03:03.469Z,8.80
2022-11-27T16:05:29.850Z,10.70
2022-11-27T16:07:57.119Z,11.10
2022-11-27T16:10:23.660Z,10.32
2022-11-27T16:12:49.939Z,13.55
2022-11-27T16:15:16.353Z,11.52
2022-11-27T16:17:42.533Z,10.60
2022-11-27T16:20:09.081Z,11.32
2022-11-27T16:22:35.297Z,10.10
2022-11-27T16:25:01.495Z,9.93
2022-11-27T16:27:27.687Z,11.50
2022-11-27T16:29:53.980Z,9.30
2022-11-27T16:32:20.258Z,9.52
2022-11-27T16:34:46.465Z,10.05
2022-11-27T16:37:18.094Z,12.20
2022-11-27T16:39:44.652Z,12.38
2022-11-27T16:42:10.847Z,10.02
2022-11-27T16:44:37.080Z,8.68
2022-11-27T16:47:03.294Z,7.68
2022-11-27T16:49:29.610Z,9.90
2022-11-27T16:51:55.998Z,8.30
2022-11-27T16:54:22.522Z,9.55
2022-11-27T16:56:48.862Z,9.60
2022-11-27T16:59:15.351Z,9.55
2022-11-27T17:01:42.301Z,10.63
2022-11-27T17:04:10.026Z,9.23
2022-11-27T17:06:37.237Z,11.52
2022-11-27T17:09:04.895Z,8.93
2022-11-27T17:11:35.357Z,9.23
2022-11-27T17:14:03.308Z,10.35
2022-11-27T17:16:29.699Z,11.32
2022-11-27T17:18:56.045Z,11.57
2022-11-27T17:21:27.170Z,9.90
2022-11-27T17:23:57.193Z,13.15
2022-11-27T17:26:24.081Z,9.38
2022-11-27T17:28:50.821Z,11.27
2022-11-27T17:31:18.495Z,10.07
2022-11-27T17:33:44.866Z,14.88
2022-11-27T17:36:11.285Z,12.38
2022-11-27T17:38:37.520Z,9.50
2022-11-27T17:41:06.537Z,11.68
2022-11-27T17:43:33.825Z,12.40
2022-11-27T17:46:00.207Z,12.75
2022-11-27T17:48:26.838Z,10.48
2022-11-27T17:50:53.464Z,12.25
2022-11-27T17:53:19.643Z,11.80
2022-11-27T17:55:46.407Z,12.43
2022-11-27T17:58:12.595Z,12.15
2022-11-27T18:00:39.756Z,12.52
2022-11-27T18:03:07.569Z,10.70
2022-11-27T18:05:37.785Z,11.18
2022-11-27T18:08:04.278Z,11.30
2022-11-27T18:10:31.032Z,12.73
2022-11-27T18:12:57.286Z,13.55
2022-11-27T18:15:23.484Z,11.23
2022-11-27T18:17:49.740Z,11.85
2022-11-27T18:20:15.994Z,10.43
2022-11-27T18:22:42.236Z,10.98
2022-11-27T18:25:08.501Z,10.07
2022-11-27T18:27:34.842Z,12.15
2022-11-27T18:30:01.219Z,12.18
2022-11-27T18:32:27.424Z,11.30
2022-11-27T18:34:54.618Z,11.10
2022-11-27T18:37:20.830Z,12.27
2022-11-27T18:39:47.737Z,16.02
2022-11-27T18:42:14.216Z,12.15
2022-11-27T18:44:44.778Z,12.07
2022-11-27T18:47:11.861Z,10.75
2022-11-27T18:49:39.403Z,10.82
2022-11-27T18:52:06.056Z,11.38
2022-11-27T18:54:32.469Z,12.95
2022-11-27T18:56:59.482Z,11.63
2022-11-27T18:59:25.790Z,12.20
2022-11-27T19:01:52.066Z,12.23
2022-11-27T19:04:18.542Z,13.50
2022-11-27T19:06:44.759Z,12.38
2022-11-27T19:09:14.000Z,13.95
2022-11-27T19:11:40.774Z,13.68
2022-11-27T19:14:07.002Z,10.35
2022-11-27T19:16:35.116Z,10.30
2022-11-27T19:19:02.074Z,12.10
2022-11-27T19:21:29.487Z,11.93
2022-11-27T19:23:57.163Z,12.07
2022-11-27T19:26:24.313Z,10.57
2022-11-27T19:28:51.603Z,12.70
2022-11-27T19:31:18.356Z,13.23
2022-11-27T19:33:44.852Z,13.57
2022-11-27T19:36:12.721Z,13.13
2022-11-27T19:38:39.903Z,11.57
2022-11-27T19:41:15.011Z,14.57
2022-11-27T19:43:41.384Z,11.98
2022-11-27T19:46:21.090Z,15.35
2022-11-27T19:48:47.781Z,11.38
2022-11-27T19:51:14.435Z,9.82
2022-11-27T19:53:41.375Z,13.60
2022-11-27T19:56:08.022Z,10.60
2022-11-27T19:58:34.559Z,11.65
2022-11-27T20:01:04.865Z,13.38
2022-11-27T20:03:31.095Z,11.73
2022-11-27T20:06:08.085Z,13.25
2022-11-27T20:08:34.532Z,12.93
2022-11-27T20:11:01.569Z,14.13
2022-11-27T20:13:27.761Z,12.15
2022-11-27T20:15:54.061Z,12.45
2022-11-27T20:18:20.339Z,12.50
2022-11-27T20:20:46.650Z,14.25
2022-11-27T20:23:14.533Z,13.25
2022-11-27T20:25:41.882Z,13.93
2022-11-27T20:28:08.676Z,13.48
2022-11-27T20:30:38.683Z,12.80
2022-11-27T20:33:07.709Z,14.55
2022-11-27T20:35:34.267Z,10.80
2022-11-27T20:38:00.508Z,11.90
2022-11-27T20:40:28.250Z,13.90
2022-11-27T20:42:54.451Z,13.45
2022-11-27T20:45:20.792Z,11.80
2022-11-27T20:47:47.130Z,12.18
2022-11-27T20:50:13.330Z,12.88
2022-11-27T20:52:39.541Z,13.15
2022-11-27T20:55:06.775Z,14.00
2022-11-27T20:57:32.956Z,14.40
2022-11-27T20:59:59.160Z,12.75
2022-11-27T21:02:25.446Z,13.73
2022-11-27T21:04:51.787Z,15.93
2022-11-27T21:07:19.327Z,14.18
2022-11-27T21:09:45.573Z,12.77
2022-11-27T21:12:13.647Z,15.77
2022-11-27T21:14:39.850Z,14.23
2022-11-27T21:17:06.184Z,15.25
2022-11-27T21:19:32.424Z,14.93
2022-11-27T21:21:58.713Z,15.40
2022-11-27T21:24:27.791Z,14.43
2022-11-27T21:26:54.128Z,14.38
2022-11-27T21:29:25.162Z,12.93
2022-11-27T21:31:51.768Z,12.57
2022-11-27T21:34:17.991Z,14.27
2022-11-27T21:36:44.601Z,15.23
2022-11-27T21:39:12.134Z,19.48
2022-11-27T21:41:38.380Z,16.08
2022-11-27T21:44:04.797Z,21.05
2022-11-27T21:46:31.203Z,14.48
2022-11-27T21:48:59.647Z,13.15
2022-11-27T21:51:26.614Z,11.23
2022-11-27T21:53:53.461Z,11.80
2022-11-27T21:56:20.722Z,15.50
2022-11-27T21:58:46.912Z,13.05
2022-11-27T22:01:15.065Z,13.23
2022-11-27T22:03:42.937Z,12.80
2022-11-27T22:06:16.569Z,13.82
2022-11-27T22:08:43.615Z,14.40
2022-11-27T22:11:12.266Z,13.35
2022-11-27T22:13:38.509Z,11.40
2022-11-27T22:16:09.290Z,15.77
2022-11-27T22:18:35.534Z,11.75
2022-11-27T22:21:05.605Z,9.57
2022-11-27T22:23:31.951Z,12.52
2022-11-27T22:26:01.770Z,10.07
2022-11-27T22:28:28.450Z,12.35
2022-11-27T22:30:55.137Z,11.57
2022-11-27T22:33:21.489Z,11.48
2022-11-27T22:35:47.695Z,13.18
2022-11-27T22:38:13.920Z,11.88
2022-11-27T22:40:40.128Z,12.43
2022-11-27T22:43:06.315Z,11.85
2022-11-27T22:45:32.785Z,11.57
2022-11-27T22:47:59.044Z,11.52
2022-11-27T22:50:25.273Z,11.00
2022-11-27T22:52:54.597Z,12.27
2022-11-27T22:55:23.253Z,10.82
2022-11-27T22:57:49.455Z,9.70
2022-11-27T23:00:15.800Z,10.57
2022-11-27T23:02:42.040Z,9.40
2022-11-27T23:05:08.442Z,11.40
2022-11-27T23:07:34.717Z,13.00
2022-11-27T23:10:00.959Z,10.55
2022-11-27T23:12:27.157Z,14.20
2022-11-27T23:14:53.358Z,12.27
2022-11-27T23:17:19.619Z,12.88
2022-11-27T23:19:45.799Z,13.50
2022-11-27T23:22:11.993Z,11.43
2022-11-27T23:24:38.188Z,10.82
2022-11-27T23:27:04.385Z,10.73
2022-11-27T23:29:30.616Z,12.27
2022-11-27T23:31:57.093Z,11.85
2022-11-27T23:34:23.432Z,13.60
2022-11-27T23:36:49.727Z,12.55
2022-11-27T23:39:16.123Z,12.30
2022-11-27T23:41:42.703Z,15.60
2022-11-27T23:44:09.578Z,11.93
2022-11-27T23:46:35.837Z,11.52
2022-11-27T23:49:02.281Z,15.20
2022-11-27T23:51:30.186Z,11.60
2022-11-27T23:53:56.484Z,14.73
2022-11-27T23:56:24.006Z,15.13
2022-11-27T23:58:50.657Z,14.77
